createdAt,value
2022-10-02T00:04:05.747Z,10
2022-10-02T00:09:17.701Z,10
2022-10-02T00:14:29.667Z,9
2022-10-02T00:19:41.670Z,9
2022-10-02T00:24:53.456Z,8
2022-10-02T00:30:05.358Z,8
2022-10-02T00:35:17.384Z,8
2022-10-02T00:40:29.487Z,8
2022-10-02T00:45:41.619Z,8
2022-10-02T00:50:53.641Z,8
2022-10-02T00:56:05.838Z,8
2022-10-02T01:01:17.929Z,8
2022-10-02T01:06:30.002Z,8
2022-10-02T01:11:41.838Z,7
2022-10-02T01:16:54.073Z,7
2022-10-02T01:22:06.419Z,7
2022-10-02T01:27:18.198Z,6
2022-10-02T01:32:30.007Z,6
2022-10-02T01:37:42.062Z,6
2022-10-02T01:42:54.033Z,6
2022-10-02T01:48:10.105Z,6
2022-10-02T01:53:23.348Z,6
2022-10-02T01:58:35.396Z,6
2022-10-02T02:03:49.337Z,5
2022-10-02T02:09:02.888Z,5
2022-10-02T02:14:14.007Z,5
2022-10-02T02:19:25.969Z,5
2022-10-02T02:24:38.067Z,5
2022-10-02T02:29:50.018Z,5
2022-10-02T02:35:01.771Z,5
2022-10-02T02:40:13.856Z,5
2022-10-02T02:45:25.925Z,4
2022-10-02T02:50:37.839Z,4
2022-10-02T02:55:49.726Z,4
2022-10-02T03:01:02.092Z,4
2022-10-02T03:06:14.095Z,4
2022-10-02T03:11:25.912Z,3
2022-10-02T03:16:39.932Z,3
2022-10-02T03:21:51.148Z,3
2022-10-02T03:27:03.116Z,3
2022-10-02T03:32:15.155Z,3
2022-10-02T03:37:27.153Z,3
2022-10-02T03:42:39.100Z,2
2022-10-02T03:47:51.241Z,3
2022-10-02T03:53:03.159Z,2
2022-10-02T03:58:15.123Z,1
2022-10-02T04:03:27.238Z,1
2022-10-02T04:08:39.231Z,1
2022-10-02T04:13:51.453Z,1
2022-10-02T04:19:03.648Z,1
2022-10-02T04:24:15.445Z,1
2022-10-02T04:29:27.455Z,0
2022-10-02T04:34:39.579Z,1
2022-10-02T04:39:51.661Z,0
2022-10-02T04:45:03.662Z,0
2022-10-02T04:50:15.603Z,0
2022-10-02T04:55:27.630Z,0
2022-10-02T05:00:39.768Z,0
2022-10-02T05:05:51.891Z,0
2022-10-02T05:11:03.918Z,0
2022-10-02T05:16:16.241Z,0
2022-10-02T05:21:28.148Z,0
2022-10-02T05:26:40.241Z,0
2022-10-02T05:31:52.743Z,0
2022-10-02T05:37:04.651Z,0
2022-10-02T05:42:16.524Z,0
2022-10-02T05:47:28.623Z,0
2022-10-02T05:52:40.721Z,0
2022-10-02T05:57:52.700Z,0
2022-10-02T06:03:05.123Z,0
2022-10-02T06:08:17.460Z,0
2022-10-02T06:13:29.474Z,0
2022-10-02T06:18:41.556Z,0
2022-10-02T06:23:53.701Z,0
2022-10-02T06:29:05.763Z,0
2022-10-02T06:34:17.893Z,0
2022-10-02T06:39:30.062Z,0
2022-10-02T06:44:42.169Z,0
2022-10-02T06:49:54.134Z,0
2022-10-02T06:55:06.453Z,0
2022-10-02T07:00:18.573Z,0
2022-10-02T07:05:30.705Z,1
2022-10-02T07:10:43.052Z,1
2022-10-02T07:15:55.524Z,1
2022-10-02T07:21:07.807Z,1
2022-10-02T07:26:19.934Z,2
2022-10-02T07:31:32.529Z,2
2022-10-02T07:36:44.841Z,2
2022-10-02T07:41:57.183Z,3
2022-10-02T07:47:09.422Z,3
2022-10-02T07:52:22.102Z,4
2022-10-02T07:57:34.425Z,5
2022-10-02T08:02:46.890Z,6
2022-10-02T08:07:59.296Z,7
2022-10-02T08:13:11.491Z,8
2022-10-02T08:18:36.521Z,9
2022-10-02T08:23:46.166Z,8
2022-10-02T08:28:58.490Z,9
2022-10-02T08:34:10.701Z,10
2022-10-02T08:39:23.009Z,10
2022-10-02T08:44:37.267Z,10
2022-10-02T08:49:49.335Z,13
2022-10-02T08:55:01.716Z,13
2022-10-02T09:00:14.258Z,14
2022-10-02T09:05:26.766Z,17
2022-10-02T09:10:39.281Z,17
2022-10-02T09:15:51.687Z,19
2022-10-02T09:21:12.116Z,20
2022-10-02T09:26:22.652Z,21
2022-10-02T09:31:35.331Z,22
2022-10-02T09:36:47.697Z,23
2022-10-02T09:41:59.992Z,25
2022-10-02T09:47:12.258Z,25
2022-10-02T09:52:24.437Z,24
2022-10-02T09:57:36.621Z,24
2022-10-02T10:02:49.257Z,24
2022-10-02T10:08:01.562Z,24
2022-10-02T10:13:14.221Z,28
2022-10-02T10:18:26.471Z,27
2022-10-02T10:23:38.656Z,28
2022-10-02T10:28:51.442Z,28
2022-10-02T10:34:03.594Z,28
2022-10-02T10:39:15.880Z,29
2022-10-02T10:44:28.119Z,30
2022-10-02T10:49:40.321Z,28
2022-10-02T10:54:52.927Z,28
2022-10-02T11:00:05.461Z,26
2022-10-02T11:05:17.646Z,24
2022-10-02T11:10:29.761Z,25
2022-10-02T11:15:41.962Z,29
2022-10-02T11:20:54.192Z,26
2022-10-02T11:26:06.499Z,26
2022-10-02T11:31:18.810Z,27
2022-10-02T11:36:30.901Z,25
2022-10-02T11:41:42.873Z,26
2022-10-02T11:46:55.065Z,25
2022-10-02T11:52:07.210Z,25
2022-10-02T11:57:19.390Z,26
2022-10-02T12:02:32.081Z,26
2022-10-02T12:07:44.319Z,25
2022-10-02T12:12:56.969Z,26
2022-10-02T12:18:09.428Z,28
2022-10-02T12:23:22.015Z,29
2022-10-02T12:28:34.556Z,30
2022-10-02T12:33:46.715Z,28
2022-10-02T12:39:03.144Z,28
2022-10-02T12:44:18.317Z,28
2022-10-02T12:54:40.256Z,25
2022-10-02T12:59:52.570Z,26
2022-10-02T13:05:04.459Z,26
2022-10-02T13:10:17.143Z,26
2022-10-02T13:15:29.137Z,24
2022-10-02T13:20:41.262Z,25
2022-10-02T13:25:53.751Z,23
2022-10-02T13:31:06.855Z,28
2022-10-02T13:36:20.396Z,34
2022-10-02T13:46:45.079Z,31
2022-10-02T13:51:57.023Z,33
2022-10-02T13:57:11.923Z,30
2022-10-02T14:07:33.904Z,25
2022-10-02T14:12:45.688Z,24
2022-10-02T14:17:57.853Z,26
2022-10-02T14:23:10.005Z,25
2022-10-02T14:28:22.560Z,25
2022-10-02T14:33:34.608Z,26
2022-10-02T14:38:46.870Z,24
2022-10-02T14:43:58.914Z,22
2022-10-02T14:49:11.142Z,23
2022-10-02T14:54:23.344Z,22
2022-10-02T14:59:35.272Z,22
2022-10-02T15:04:47.183Z,21
2022-10-02T15:09:59.183Z,21
2022-10-02T15:15:11.270Z,19
2022-10-02T15:20:23.352Z,21
2022-10-02T15:25:35.509Z,21
2022-10-02T15:30:47.657Z,20
2022-10-02T15:35:59.975Z,20
2022-10-02T15:41:12.483Z,20
2022-10-02T15:46:24.588Z,20
2022-10-02T15:51:36.744Z,20
2022-10-02T15:56:49.236Z,19
2022-10-02T16:02:01.715Z,18
2022-10-02T16:07:13.725Z,16
2022-10-02T16:12:26.075Z,16
2022-10-02T16:17:38.247Z,15
2022-10-02T16:22:50.656Z,16
2022-10-02T16:28:03.363Z,16
2022-10-02T16:33:15.497Z,15
2022-10-02T16:38:27.919Z,14
2022-10-02T16:43:40.113Z,14
2022-10-02T16:48:52.166Z,15
2022-10-02T16:54:04.257Z,15
2022-10-02T16:59:16.482Z,16
2022-10-02T17:04:28.803Z,16
2022-10-02T17:09:40.876Z,15
2022-10-02T17:14:53.242Z,16
2022-10-02T17:20:05.436Z,16
2022-10-02T17:25:17.656Z,16
2022-10-02T17:30:29.990Z,15
2022-10-02T17:35:42.257Z,15
2022-10-02T17:40:54.300Z,13
2022-10-02T17:46:06.856Z,14
2022-10-02T17:51:53.866Z,13
2022-10-02T17:57:01.186Z,12
2022-10-02T18:02:13.444Z,13
2022-10-02T18:07:25.543Z,13
2022-10-02T18:12:37.599Z,12
2022-10-02T18:17:50.067Z,12
2022-10-02T18:23:02.159Z,12
2022-10-02T18:28:14.738Z,12
2022-10-02T18:33:26.779Z,11
2022-10-02T18:38:38.875Z,12
2022-10-02T18:43:51.386Z,11
2022-10-02T18:49:07.745Z,11
2022-10-02T18:54:22.229Z,11
2022-10-02T18:59:34.362Z,11
2022-10-02T19:04:46.775Z,11
2022-10-02T19:09:58.772Z,10
2022-10-02T19:15:10.972Z,10
2022-10-02T19:20:23.094Z,10
2022-10-02T19:25:35.184Z,10
2022-10-02T19:30:47.397Z,9
2022-10-02T19:35:59.621Z,8
2022-10-02T19:41:12.197Z,8
2022-10-02T19:46:24.310Z,8
2022-10-02T19:51:38.027Z,7
2022-10-02T19:56:50.200Z,7
2022-10-02T20:02:02.595Z,7
2022-10-02T20:07:14.885Z,7
2022-10-02T20:12:27.290Z,7
2022-10-02T20:17:39.348Z,7
2022-10-02T20:22:51.703Z,7
2022-10-02T20:28:04.443Z,7
2022-10-02T20:33:19.214Z,7
2022-10-02T20:38:31.992Z,7
2022-10-02T20:43:43.673Z,6
2022-10-02T20:49:10.618Z,6
2022-10-02T20:54:19.776Z,6
2022-10-02T20:59:31.856Z,6
2022-10-02T21:04:44.048Z,6
2022-10-02T21:09:56.357Z,5
2022-10-02T21:15:08.641Z,5
2022-10-02T21:20:52.399Z,5
2022-10-02T21:26:00.476Z,5
2022-10-02T21:31:12.487Z,5
2022-10-02T21:36:24.566Z,5
2022-10-02T21:41:38.201Z,5
2022-10-02T21:46:50.354Z,5
2022-10-02T21:52:02.464Z,5
2022-10-02T21:57:14.914Z,5
2022-10-02T22:02:27.261Z,5
2022-10-02T22:07:39.216Z,5
2022-10-02T22:12:51.486Z,5
2022-10-02T22:18:03.743Z,4
2022-10-02T22:23:15.861Z,4
2022-10-02T22:28:28.486Z,4
2022-10-02T22:33:40.567Z,3
2022-10-02T22:38:52.689Z,3
2022-10-02T22:44:04.835Z,3
2022-10-02T22:49:16.929Z,3
2022-10-02T22:54:29.083Z,3
2022-10-02T22:59:41.344Z,3
2022-10-02T23:04:53.664Z,3
2022-10-02T23:10:05.923Z,3
2022-10-02T23:15:18.276Z,3
2022-10-02T23:20:30.443Z,2
2022-10-02T23:25:42.736Z,2
2022-10-02T23:30:55.317Z,2
2022-10-02T23:36:07.476Z,3
2022-10-02T23:41:19.625Z,2
2022-10-02T23:46:32.010Z,2
2022-10-02T23:51:44.160Z,2
2022-10-02T23:56:56.379Z,2
